sensor_id;sensor_type;location;lat;lon;timestamp;P1;durP1;ratioP1;P2;durP2;ratioP2
6149;SDS011;3106;42.670;23.318;2023-12-20T00:00:34;153.70;;;63.47;;
6149;SDS011;3106;42.670;23.318;2023-12-20T00:03:02;117.80;;;53.93;;
6149;SDS011;3106;42.670;23.318;2023-12-20T00:05:32;120.40;;;50.03;;
6149;SDS011;3106;42.670;23.318;2023-12-20T00:08:01;130.40;;;51.07;;
6149;SDS011;3106;42.670;23.318;2023-12-20T00:10:30;135.47;;;56.07;;
6149;SDS011;3106;42.670;23.318;2023-12-20T00:12:57;144.27;;;64.00;;
6149;SDS011;3106;42.670;23.318;2023-12-20T00:15:23;203.70;;;89.90;;
6149;SDS011;3106;42.670;23.318;2023-12-20T00:17:50;220.67;;;91.87;;
6149;SDS011;3106;42.670;23.318;2023-12-20T00:20:17;203.83;;;86.57;;
6149;SDS011;3106;42.670;23.318;2023-12-20T00:22:45;162.30;;;67.63;;
6149;SDS011;3106;42.670;23.318;2023-12-20T00:25:12;224.57;;;91.37;;
6149;SDS011;3106;42.670;23.318;2023-12-20T00:27:39;232.87;;;89.27;;
6149;SDS011;3106;42.670;23.318;2023-12-20T00:30:07;164.53;;;69.50;;
6149;SDS011;3106;42.670;23.318;2023-12-20T00:32:37;148.17;;;60.07;;
6149;SDS011;3106;42.670;23.318;2023-12-20T00:35:04;152.37;;;64.37;;
6149;SDS011;3106;42.670;23.318;2023-12-20T00:37:31;156.77;;;63.53;;
6149;SDS011;3106;42.670;23.318;2023-12-20T00:39:59;147.03;;;63.70;;
6149;SDS011;3106;42.670;23.318;2023-12-20T00:42:26;136.37;;;60.43;;
6149;SDS011;3106;42.670;23.318;2023-12-20T00:44:53;137.07;;;58.00;;
6149;SDS011;3106;42.670;23.318;2023-12-20T00:47:20;137.77;;;57.10;;
6149;SDS011;3106;42.670;23.318;2023-12-20T00:49:47;123.27;;;55.03;;
6149;SDS011;3106;42.670;23.318;2023-12-20T00:52:14;133.83;;;55.67;;
6149;SDS011;3106;42.670;23.318;2023-12-20T00:54:42;123.87;;;54.10;;
6149;SDS011;3106;42.670;23.318;2023-12-20T00:57:11;149.73;;;55.40;;
6149;SDS011;3106;42.670;23.318;2023-12-20T00:59:38;121.80;;;50.73;;
6149;SDS011;3106;42.670;23.318;2023-12-20T01:02:05;125.33;;;54.83;;
6149;SDS011;3106;42.670;23.318;2023-12-20T01:04:35;137.00;;;58.83;;
6149;SDS011;3106;42.670;23.318;2023-12-20T01:07:01;135.80;;;61.70;;
6149;SDS011;3106;42.670;23.318;2023-12-20T01:09:28;148.70;;;62.10;;
6149;SDS011;3106;42.670;23.318;2023-12-20T01:11:55;164.00;;;69.10;;
6149;SDS011;3106;42.670;23.318;2023-12-20T01:14:23;173.90;;;66.17;;
6149;SDS011;3106;42.670;23.318;2023-12-20T01:16:49;142.63;;;56.00;;
6149;SDS011;3106;42.670;23.318;2023-12-20T01:19:17;136.23;;;56.60;;
6149;SDS011;3106;42.670;23.318;2023-12-20T01:21:44;131.10;;;57.17;;
6149;SDS011;3106;42.670;23.318;2023-12-20T01:24:11;142.93;;;62.80;;
6149;SDS011;3106;42.670;23.318;2023-12-20T01:26:37;139.53;;;59.57;;
6149;SDS011;3106;42.670;23.318;2023-12-20T01:29:05;144.10;;;57.77;;
6149;SDS011;3106;42.670;23.318;2023-12-20T01:31:33;133.97;;;56.13;;
6149;SDS011;3106;42.670;23.318;2023-12-20T01:33:59;140.93;;;58.27;;
6149;SDS011;3106;42.670;23.318;2023-12-20T01:36:26;135.27;;;58.87;;
6149;SDS011;3106;42.670;23.318;2023-12-20T01:38:53;132.13;;;57.20;;
6149;SDS011;3106;42.670;23.318;2023-12-20T01:41:20;143.50;;;58.47;;
6149;SDS011;3106;42.670;23.318;2023-12-20T01:43:46;136.30;;;59.63;;
6149;SDS011;3106;42.670;23.318;2023-12-20T01:46:13;151.73;;;60.80;;
6149;SDS011;3106;42.670;23.318;2023-12-20T01:48:42;149.23;;;59.83;;
6149;SDS011;3106;42.670;23.318;2023-12-20T01:51:09;148.47;;;63.83;;
6149;SDS011;3106;42.670;23.318;2023-12-20T01:53:37;144.43;;;60.10;;
6149;SDS011;3106;42.670;23.318;2023-12-20T01:56:06;134.73;;;58.23;;
6149;SDS011;3106;42.670;23.318;2023-12-20T01:58:33;139.83;;;58.57;;
6149;SDS011;3106;42.670;23.318;2023-12-20T02:01:00;140.67;;;59.57;;
6149;SDS011;3106;42.670;23.318;2023-12-20T02:03:27;149.40;;;58.80;;
6149;SDS011;3106;42.670;23.318;2023-12-20T02:05:55;149.80;;;65.40;;
6149;SDS011;3106;42.670;23.318;2023-12-20T02:08:22;144.40;;;60.97;;
6149;SDS011;3106;42.670;23.318;2023-12-20T02:10:49;139.83;;;57.90;;
6149;SDS011;3106;42.670;23.318;2023-12-20T02:13:16;157.80;;;63.10;;
6149;SDS011;3106;42.670;23.318;2023-12-20T02:18:12;173.87;;;72.47;;
6149;SDS011;3106;42.670;23.318;2023-12-20T02:20:41;180.83;;;78.60;;
6149;SDS011;3106;42.670;23.318;2023-12-20T02:23:11;182.27;;;80.70;;
6149;SDS011;3106;42.670;23.318;2023-12-20T02:25:38;197.50;;;83.73;;
6149;SDS011;3106;42.670;23.318;2023-12-20T02:28:04;227.67;;;91.60;;
6149;SDS011;3106;42.670;23.318;2023-12-20T02:30:32;251.27;;;107.30;;
6149;SDS011;3106;42.670;23.318;2023-12-20T02:33:02;263.03;;;116.60;;
6149;SDS011;3106;42.670;23.318;2023-12-20T02:35:33;249.07;;;108.70;;
6149;SDS011;3106;42.670;23.318;2023-12-20T02:38:00;263.73;;;109.60;;
6149;SDS011;3106;42.670;23.318;2023-12-20T02:40:28;271.47;;;109.63;;
6149;SDS011;3106;42.670;23.318;2023-12-20T02:42:55;256.63;;;111.97;;
6149;SDS011;3106;42.670;23.318;2023-12-20T02:45:22;269.73;;;113.93;;
6149;SDS011;3106;42.670;23.318;2023-12-20T02:47:48;266.93;;;109.07;;
6149;SDS011;3106;42.670;23.318;2023-12-20T02:50:15;303.90;;;123.17;;
6149;SDS011;3106;42.670;23.318;2023-12-20T02:52:44;289.67;;;114.60;;
6149;SDS011;3106;42.670;23.318;2023-12-20T02:55:10;267.47;;;110.17;;
6149;SDS011;3106;42.670;23.318;2023-12-20T02:57:39;255.87;;;106.60;;
6149;SDS011;3106;42.670;23.318;2023-12-20T03:00:07;256.83;;;110.87;;
6149;SDS011;3106;42.670;23.318;2023-12-20T03:02:34;252.17;;;107.30;;
6149;SDS011;3106;42.670;23.318;2023-12-20T03:05:01;276.50;;;114.37;;
6149;SDS011;3106;42.670;23.318;2023-12-20T03:07:28;274.33;;;109.20;;
6149;SDS011;3106;42.670;23.318;2023-12-20T03:09:55;278.27;;;113.97;;
6149;SDS011;3106;42.670;23.318;2023-12-20T03:12:22;281.17;;;114.87;;
6149;SDS011;3106;42.670;23.318;2023-12-20T03:14:50;299.43;;;120.80;;
6149;SDS011;3106;42.670;23.318;2023-12-20T03:17:17;315.70;;;122.77;;
6149;SDS011;3106;42.670;23.318;2023-12-20T03:19:45;280.10;;;113.03;;
6149;SDS011;3106;42.670;23.318;2023-12-20T03:22:12;283.30;;;111.37;;
6149;SDS011;3106;42.670;23.318;2023-12-20T03:24:39;298.27;;;119.10;;
6149;SDS011;3106;42.670;23.318;2023-12-20T03:27:05;284.60;;;119.00;;
6149;SDS011;3106;42.670;23.318;2023-12-20T03:29:33;265.70;;;112.37;;
6149;SDS011;3106;42.670;23.318;2023-12-20T03:32:01;277.97;;;115.30;;
6149;SDS011;3106;42.670;23.318;2023-12-20T03:34:28;300.03;;;120.07;;
6149;SDS011;3106;42.670;23.318;2023-12-20T03:36:55;293.73;;;120.10;;
6149;SDS011;3106;42.670;23.318;2023-12-20T03:39:23;247.60;;;97.67;;
6149;SDS011;3106;42.670;23.318;2023-12-20T03:41:52;220.03;;;88.73;;
6149;SDS011;3106;42.670;23.318;2023-12-20T03:44:22;216.17;;;90.33;;
6149;SDS011;3106;42.670;23.318;2023-12-20T03:46:50;215.10;;;86.93;;
6149;SDS011;3106;42.670;23.318;2023-12-20T03:49:18;194.70;;;76.07;;
6149;SDS011;3106;42.670;23.318;2023-12-20T03:51:45;156.10;;;67.23;;
6149;SDS011;3106;42.670;23.318;2023-12-20T03:54:12;164.37;;;66.67;;
6149;SDS011;3106;42.670;23.318;2023-12-20T03:56:38;176.53;;;69.10;;
6149;SDS011;3106;42.670;23.318;2023-12-20T03:59:05;178.53;;;73.90;;
6149;SDS011;3106;42.670;23.318;2023-12-20T04:01:32;173.03;;;71.37;;
6149;SDS011;3106;42.670;23.318;2023-12-20T04:03:59;198.47;;;81.07;;
6149;SDS011;3106;42.670;23.318;2023-12-20T04:06:28;242.63;;;90.00;;
6149;SDS011;3106;42.670;23.318;2023-12-20T04:08:54;215.80;;;88.73;;
6149;SDS011;3106;42.670;23.318;2023-12-20T04:11:21;199.20;;;79.20;;
6149;SDS011;3106;42.670;23.318;2023-12-20T04:13:47;198.70;;;79.60;;
6149;SDS011;3106;42.670;23.318;2023-12-20T04:16:14;197.67;;;81.47;;
6149;SDS011;3106;42.670;23.318;2023-12-20T04:18:41;195.00;;;79.70;;
6149;SDS011;3106;42.670;23.318;2023-12-20T04:21:08;214.13;;;87.40;;
6149;SDS011;3106;42.670;23.318;2023-12-20T04:23:36;192.27;;;78.90;;
6149;SDS011;3106;42.670;23.318;2023-12-20T04:26:02;194.87;;;78.57;;
6149;SDS011;3106;42.670;23.318;2023-12-20T04:28:29;192.23;;;75.10;;
6149;SDS011;3106;42.670;23.318;2023-12-20T04:30:56;185.87;;;72.07;;
6149;SDS011;3106;42.670;23.318;2023-12-20T04:33:23;187.17;;;72.00;;
6149;SDS011;3106;42.670;23.318;2023-12-20T04:35:50;179.57;;;67.80;;
6149;SDS011;3106;42.670;23.318;2023-12-20T04:38:17;170.10;;;68.07;;
6149;SDS011;3106;42.670;23.318;2023-12-20T04:40:46;174.45;;;71.22;;
6149;SDS011;3106;42.670;23.318;2023-12-20T04:43:13;163.77;;;67.40;;
6149;SDS011;3106;42.670;23.318;2023-12-20T04:45:40;209.27;;;79.60;;
6149;SDS011;3106;42.670;23.318;2023-12-20T04:48:07;219.63;;;80.37;;
6149;SDS011;3106;42.670;23.318;2023-12-20T04:50:34;255.10;;;100.00;;
6149;SDS011;3106;42.670;23.318;2023-12-20T04:53:00;240.13;;;98.53;;
6149;SDS011;3106;42.670;23.318;2023-12-20T04:55:27;258.60;;;102.17;;
6149;SDS011;3106;42.670;23.318;2023-12-20T04:57:55;259.50;;;101.93;;
6149;SDS011;3106;42.670;23.318;2023-12-20T05:00:22;261.80;;;102.80;;
6149;SDS011;3106;42.670;23.318;2023-12-20T05:02:49;239.17;;;94.67;;
6149;SDS011;3106;42.670;23.318;2023-12-20T05:05:16;236.77;;;93.80;;
6149;SDS011;3106;42.670;23.318;2023-12-20T05:07:43;242.80;;;93.23;;
6149;SDS011;3106;42.670;23.318;2023-12-20T05:10:09;224.37;;;85.47;;
6149;SDS011;3106;42.670;23.318;2023-12-20T05:12:36;236.13;;;90.90;;
6149;SDS011;3106;42.670;23.318;2023-12-20T05:15:05;219.90;;;85.27;;
6149;SDS011;3106;42.670;23.318;2023-12-20T05:17:35;221.10;;;84.40;;
6149;SDS011;3106;42.670;23.318;2023-12-20T05:20:01;232.70;;;89.77;;
6149;SDS011;3106;42.670;23.318;2023-12-20T05:22:29;226.97;;;85.97;;
6149;SDS011;3106;42.670;23.318;2023-12-20T05:24:54;242.73;;;90.77;;
6149;SDS011;3106;42.670;23.318;2023-12-20T05:27:21;211.63;;;86.13;;
6149;SDS011;3106;42.670;23.318;2023-12-20T05:29:48;224.43;;;82.60;;
6149;SDS011;3106;42.670;23.318;2023-12-20T05:32:17;206.23;;;76.33;;
6149;SDS011;3106;42.670;23.318;2023-12-20T05:34:47;200.77;;;74.90;;
6149;SDS011;3106;42.670;23.318;2023-12-20T05:37:13;260.83;;;73.33;;
6149;SDS011;3106;42.670;23.318;2023-12-20T05:39:40;334.38;;;74.65;;
6149;SDS011;3106;42.670;23.318;2023-12-20T05:42:07;378.00;;;70.07;;
6149;SDS011;3106;42.670;23.318;2023-12-20T05:44:39;360.77;;;74.47;;
6149;SDS011;3106;42.670;23.318;2023-12-20T05:47:06;323.13;;;69.67;;
6149;SDS011;3106;42.670;23.318;2023-12-20T05:49:34;238.73;;;78.87;;
6149;SDS011;3106;42.670;23.318;2023-12-20T05:52:01;266.27;;;68.37;;
6149;SDS011;3106;42.670;23.318;2023-12-20T05:54:27;247.40;;;69.67;;
6149;SDS011;3106;42.670;23.318;2023-12-20T05:56:54;296.95;;;75.35;;
6149;SDS011;3106;42.670;23.318;2023-12-20T05:59:21;230.00;;;71.97;;
6149;SDS011;3106;42.670;23.318;2023-12-20T06:01:47;223.90;;;63.17;;
6149;SDS011;3106;42.670;23.318;2023-12-20T06:04:14;395.47;;;70.30;;
6149;SDS011;3106;42.670;23.318;2023-12-20T06:06:42;325.97;;;67.97;;
6149;SDS011;3106;42.670;23.318;2023-12-20T06:09:11;356.77;;;71.63;;
6149;SDS011;3106;42.670;23.318;2023-12-20T06:11:38;264.00;;;76.17;;
6149;SDS011;3106;42.670;23.318;2023-12-20T06:14:04;335.00;;;69.93;;
6149;SDS011;3106;42.670;23.318;2023-12-20T06:16:33;369.40;;;71.57;;
6149;SDS011;3106;42.670;23.318;2023-12-20T06:19:01;272.97;;;71.00;;
6149;SDS011;3106;42.670;23.318;2023-12-20T06:21:27;468.63;;;77.97;;
6149;SDS011;3106;42.670;23.318;2023-12-20T06:23:55;399.50;;;78.20;;
6149;SDS011;3106;42.670;23.318;2023-12-20T06:26:23;572.10;;;87.07;;
6149;SDS011;3106;42.670;23.318;2023-12-20T06:28:50;467.23;;;81.20;;
6149;SDS011;3106;42.670;23.318;2023-12-20T06:31:16;515.37;;;86.40;;
6149;SDS011;3106;42.670;23.318;2023-12-20T06:33:43;328.23;;;74.37;;
6149;SDS011;3106;42.670;23.318;2023-12-20T06:36:11;408.97;;;81.23;;
6149;SDS011;3106;42.670;23.318;2023-12-20T06:38:39;419.40;;;78.73;;
6149;SDS011;3106;42.670;23.318;2023-12-20T06:41:08;314.63;;;72.30;;
6149;SDS011;3106;42.670;23.318;2023-12-20T06:43:38;274.73;;;72.53;;
6149;SDS011;3106;42.670;23.318;2023-12-20T06:46:06;219.35;;;72.95;;
6149;SDS011;3106;42.670;23.318;2023-12-20T06:48:33;305.37;;;74.00;;
6149;SDS011;3106;42.670;23.318;2023-12-20T06:51:00;290.63;;;80.07;;
6149;SDS011;3106;42.670;23.318;2023-12-20T06:53:28;232.57;;;68.90;;
6149;SDS011;3106;42.670;23.318;2023-12-20T06:55:57;245.23;;;69.30;;
6149;SDS011;3106;42.670;23.318;2023-12-20T06:58:25;246.87;;;75.30;;
6149;SDS011;3106;42.670;23.318;2023-12-20T07:00:53;294.02;;;79.70;;
6149;SDS011;3106;42.670;23.318;2023-12-20T07:03:20;234.53;;;73.30;;
6149;SDS011;3106;42.670;23.318;2023-12-20T07:05:48;282.27;;;84.67;;
6149;SDS011;3106;42.670;23.318;2023-12-20T07:08:15;253.63;;;79.67;;
6149;SDS011;3106;42.670;23.318;2023-12-20T07:10:42;242.63;;;73.80;;
6149;SDS011;3106;42.670;23.318;2023-12-20T07:13:09;226.43;;;76.03;;
6149;SDS011;3106;42.670;23.318;2023-12-20T07:15:37;243.63;;;81.50;;
6149;SDS011;3106;42.670;23.318;2023-12-20T07:18:04;202.17;;;73.27;;
6149;SDS011;3106;42.670;23.318;2023-12-20T07:20:33;223.30;;;75.57;;
6149;SDS011;3106;42.670;23.318;2023-12-20T07:23:00;224.37;;;78.47;;
6149;SDS011;3106;42.670;23.318;2023-12-20T07:25:26;209.87;;;78.20;;
6149;SDS011;3106;42.670;23.318;2023-12-20T07:27:53;193.63;;;75.27;;
6149;SDS011;3106;42.670;23.318;2023-12-20T07:30:22;212.13;;;73.93;;
6149;SDS011;3106;42.670;23.318;2023-12-20T07:32:50;248.37;;;86.07;;
6149;SDS011;3106;42.670;23.318;2023-12-20T07:35:17;235.03;;;84.00;;
6149;SDS011;3106;42.670;23.318;2023-12-20T07:37:44;223.90;;;74.57;;
6149;SDS011;3106;42.670;23.318;2023-12-20T07:40:11;235.47;;;73.93;;
6149;SDS011;3106;42.670;23.318;2023-12-20T07:42:38;217.90;;;75.77;;
6149;SDS011;3106;42.670;23.318;2023-12-20T07:45:05;236.00;;;73.30;;
6149;SDS011;3106;42.670;23.318;2023-12-20T07:47:35;226.43;;;71.83;;
6149;SDS011;3106;42.670;23.318;2023-12-20T07:50:05;199.50;;;73.73;;
6149;SDS011;3106;42.670;23.318;2023-12-20T07:52:32;220.97;;;75.93;;
6149;SDS011;3106;42.670;23.318;2023-12-20T07:54:59;216.77;;;76.20;;
6149;SDS011;3106;42.670;23.318;2023-12-20T07:57:29;208.17;;;72.30;;
6149;SDS011;3106;42.670;23.318;2023-12-20T07:59:58;227.53;;;75.83;;
6149;SDS011;3106;42.670;23.318;2023-12-20T08:02:26;207.43;;;65.90;;
6149;SDS011;3106;42.670;23.318;2023-12-20T08:04:52;203.33;;;75.73;;
6149;SDS011;3106;42.670;23.318;2023-12-20T08:07:24;219.37;;;78.87;;
6149;SDS011;3106;42.670;23.318;2023-12-20T08:09:51;231.30;;;81.50;;
6149;SDS011;3106;42.670;23.318;2023-12-20T08:12:20;257.57;;;81.37;;
6149;SDS011;3106;42.670;23.318;2023-12-20T08:14:48;222.80;;;76.93;;
6149;SDS011;3106;42.670;23.318;2023-12-20T08:17:14;222.60;;;78.93;;
6149;SDS011;3106;42.670;23.318;2023-12-20T08:19:45;235.27;;;80.80;;
6149;SDS011;3106;42.670;23.318;2023-12-20T08:22:12;222.90;;;85.70;;
6149;SDS011;3106;42.670;23.318;2023-12-20T08:24:41;218.87;;;77.10;;
6149;SDS011;3106;42.670;23.318;2023-12-20T08:27:08;215.83;;;77.20;;
6149;SDS011;3106;42.670;23.318;2023-12-20T08:29:35;220.30;;;74.37;;
6149;SDS011;3106;42.670;23.318;2023-12-20T08:32:02;218.60;;;75.97;;
6149;SDS011;3106;42.670;23.318;2023-12-20T08:34:33;216.20;;;75.70;;
6149;SDS011;3106;42.670;23.318;2023-12-20T08:37:00;224.43;;;78.27;;
6149;SDS011;3106;42.670;23.318;2023-12-20T08:39:27;201.17;;;76.53;;
6149;SDS011;3106;42.670;23.318;2023-12-20T08:41:58;227.87;;;80.57;;
6149;SDS011;3106;42.670;23.318;2023-12-20T08:44:25;222.20;;;78.97;;
6149;SDS011;3106;42.670;23.318;2023-12-20T08:46:52;223.47;;;80.03;;
6149;SDS011;3106;42.670;23.318;2023-12-20T08:49:22;216.33;;;79.30;;
6149;SDS011;3106;42.670;23.318;2023-12-20T08:51:49;207.03;;;73.13;;
6149;SDS011;3106;42.670;23.318;2023-12-20T08:54:18;227.07;;;81.77;;
6149;SDS011;3106;42.670;23.318;2023-12-20T08:56:45;210.20;;;75.33;;
6149;SDS011;3106;42.670;23.318;2023-12-20T08:59:13;207.87;;;75.97;;
6149;SDS011;3106;42.670;23.318;2023-12-20T09:01:40;222.93;;;78.87;;
6149;SDS011;3106;42.670;23.318;2023-12-20T09:04:12;205.83;;;75.40;;
6149;SDS011;3106;42.670;23.318;2023-12-20T09:10:21;208.47;;;77.37;;
6149;SDS011;3106;42.670;23.318;2023-12-20T09:12:49;212.70;;;77.00;;
6149;SDS011;3106;42.670;23.318;2023-12-20T09:18:12;228.00;;;83.10;;
6149;SDS011;3106;42.670;23.318;2023-12-20T09:20:45;211.77;;;75.80;;
6149;SDS011;3106;42.670;23.318;2023-12-20T09:23:14;221.67;;;83.70;;
6149;SDS011;3106;42.670;23.318;2023-12-20T09:25:54;207.57;;;78.57;;
6149;SDS011;3106;42.670;23.318;2023-12-20T09:28:24;193.97;;;76.00;;
6149;SDS011;3106;42.670;23.318;2023-12-20T09:31:04;200.70;;;73.77;;
6149;SDS011;3106;42.670;23.318;2023-12-20T09:33:32;214.00;;;74.97;;
6149;SDS011;3106;42.670;23.318;2023-12-20T09:35:59;223.20;;;77.20;;
6149;SDS011;3106;42.670;23.318;2023-12-20T09:38:28;204.27;;;78.07;;
6149;SDS011;3106;42.670;23.318;2023-12-20T09:41:09;192.23;;;79.13;;
6149;SDS011;3106;42.670;23.318;2023-12-20T09:43:42;179.10;;;72.33;;
6149;SDS011;3106;42.670;23.318;2023-12-20T09:46:26;153.63;;;60.57;;
6149;SDS011;3106;42.670;23.318;2023-12-20T09:49:01;156.53;;;59.80;;
6149;SDS011;3106;42.670;23.318;2023-12-20T09:51:47;143.37;;;55.03;;
6149;SDS011;3106;42.670;23.318;2023-12-20T09:54:17;137.97;;;56.13;;
6149;SDS011;3106;42.670;23.318;2023-12-20T09:56:44;149.87;;;52.93;;
6149;SDS011;3106;42.670;23.318;2023-12-20T09:59:11;148.33;;;57.70;;
6149;SDS011;3106;42.670;23.318;2023-12-20T10:01:41;146.73;;;55.20;;
6149;SDS011;3106;42.670;23.318;2023-12-20T10:04:09;159.60;;;55.40;;
6149;SDS011;3106;42.670;23.318;2023-12-20T10:06:39;159.10;;;58.07;;
6149;SDS011;3106;42.670;23.318;2023-12-20T10:09:06;145.63;;;57.77;;
6149;SDS011;3106;42.670;23.318;2023-12-20T10:11:34;154.43;;;52.43;;
6149;SDS011;3106;42.670;23.318;2023-12-20T10:14:03;142.03;;;54.50;;
6149;SDS011;3106;42.670;23.318;2023-12-20T10:16:33;174.13;;;61.53;;
6149;SDS011;3106;42.670;23.318;2023-12-20T10:19:01;155.37;;;57.97;;
6149;SDS011;3106;42.670;23.318;2023-12-20T10:21:29;157.27;;;58.73;;
6149;SDS011;3106;42.670;23.318;2023-12-20T10:23:58;152.23;;;56.23;;
6149;SDS011;3106;42.670;23.318;2023-12-20T10:26:30;159.73;;;56.70;;
6149;SDS011;3106;42.670;23.318;2023-12-20T10:29:05;151.80;;;57.83;;
6149;SDS011;3106;42.670;23.318;2023-12-20T10:31:33;163.80;;;59.63;;
6149;SDS011;3106;42.670;23.318;2023-12-20T10:34:02;148.50;;;58.23;;
6149;SDS011;3106;42.670;23.318;2023-12-20T10:36:31;148.23;;;57.40;;
6149;SDS011;3106;42.670;23.318;2023-12-20T10:39:01;175.07;;;59.90;;
6149;SDS011;3106;42.670;23.318;2023-12-20T10:41:29;150.57;;;57.80;;
6149;SDS011;3106;42.670;23.318;2023-12-20T10:43:58;187.67;;;65.93;;
6149;SDS011;3106;42.670;23.318;2023-12-20T10:46:26;149.27;;;56.97;;
6149;SDS011;3106;42.670;23.318;2023-12-20T10:48:56;150.67;;;58.67;;
6149;SDS011;3106;42.670;23.318;2023-12-20T10:51:25;156.30;;;59.40;;
6149;SDS011;3106;42.670;23.318;2023-12-20T10:53:54;158.67;;;58.80;;
6149;SDS011;3106;42.670;23.318;2023-12-20T10:56:22;148.37;;;59.50;;
6149;SDS011;3106;42.670;23.318;2023-12-20T10:58:54;169.63;;;59.93;;
6149;SDS011;3106;42.670;23.318;2023-12-20T11:01:23;163.23;;;58.37;;
6149;SDS011;3106;42.670;23.318;2023-12-20T11:03:53;151.07;;;63.07;;
6149;SDS011;3106;42.670;23.318;2023-12-20T11:06:29;175.53;;;60.73;;
6149;SDS011;3106;42.670;23.318;2023-12-20T11:09:04;167.73;;;63.90;;
6149;SDS011;3106;42.670;23.318;2023-12-20T11:11:41;167.57;;;61.40;;
6149;SDS011;3106;42.670;23.318;2023-12-20T11:14:18;189.50;;;69.40;;
6149;SDS011;3106;42.670;23.318;2023-12-20T11:16:50;159.07;;;60.30;;
6149;SDS011;3106;42.670;23.318;2023-12-20T11:19:22;166.43;;;64.87;;
6149;SDS011;3106;42.670;23.318;2023-12-20T11:21:52;165.30;;;60.70;;
6149;SDS011;3106;42.670;23.318;2023-12-20T11:24:21;163.20;;;59.90;;
6149;SDS011;3106;42.670;23.318;2023-12-20T11:26:55;164.10;;;59.10;;
6149;SDS011;3106;42.670;23.318;2023-12-20T11:29:33;182.43;;;55.60;;
6149;SDS011;3106;42.670;23.318;2023-12-20T11:32:01;173.80;;;61.07;;
6149;SDS011;3106;42.670;23.318;2023-12-20T11:34:31;170.10;;;61.73;;
6149;SDS011;3106;42.670;23.318;2023-12-20T11:37:01;159.67;;;56.97;;
6149;SDS011;3106;42.670;23.318;2023-12-20T11:39:29;184.77;;;65.17;;
6149;SDS011;3106;42.670;23.318;2023-12-20T11:41:57;186.87;;;63.97;;
6149;SDS011;3106;42.670;23.318;2023-12-20T11:44:30;176.40;;;61.70;;
6149;SDS011;3106;42.670;23.318;2023-12-20T11:46:59;168.00;;;55.47;;
6149;SDS011;3106;42.670;23.318;2023-12-20T11:49:26;159.90;;;58.90;;
6149;SDS011;3106;42.670;23.318;2023-12-20T11:51:54;173.53;;;57.53;;
6149;SDS011;3106;42.670;23.318;2023-12-20T11:54:27;170.43;;;60.03;;
6149;SDS011;3106;42.670;23.318;2023-12-20T11:56:54;164.40;;;59.67;;
6149;SDS011;3106;42.670;23.318;2023-12-20T11:59:22;176.33;;;61.33;;
6149;SDS011;3106;42.670;23.318;2023-12-20T12:01:50;169.53;;;63.40;;
6149;SDS011;3106;42.670;23.318;2023-12-20T12:04:17;159.93;;;57.93;;
6149;SDS011;3106;42.670;23.318;2023-12-20T12:06:45;172.83;;;59.57;;
6149;SDS011;3106;42.670;23.318;2023-12-20T12:09:15;162.90;;;60.63;;
6149;SDS011;3106;42.670;23.318;2023-12-20T12:11:45;158.50;;;60.43;;
6149;SDS011;3106;42.670;23.318;2023-12-20T12:14:12;125.27;;;52.53;;
6149;SDS011;3106;42.670;23.318;2023-12-20T12:16:44;131.63;;;52.83;;
6149;SDS011;3106;42.670;23.318;2023-12-20T12:19:20;147.10;;;55.33;;
6149;SDS011;3106;42.670;23.318;2023-12-20T12:21:47;149.67;;;56.03;;
6149;SDS011;3106;42.670;23.318;2023-12-20T12:24:15;142.10;;;55.93;;
6149;SDS011;3106;42.670;23.318;2023-12-20T12:26:42;148.03;;;53.50;;
6149;SDS011;3106;42.670;23.318;2023-12-20T12:29:10;153.07;;;57.13;;
6149;SDS011;3106;42.670;23.318;2023-12-20T12:31:38;149.87;;;56.40;;
6149;SDS011;3106;42.670;23.318;2023-12-20T12:34:07;162.70;;;58.37;;
6149;SDS011;3106;42.670;23.318;2023-12-20T12:36:35;142.97;;;55.40;;
6149;SDS011;3106;42.670;23.318;2023-12-20T12:39:06;143.47;;;57.27;;
6149;SDS011;3106;42.670;23.318;2023-12-20T12:41:34;156.40;;;56.47;;
6149;SDS011;3106;42.670;23.318;2023-12-20T12:44:00;160.47;;;56.20;;
6149;SDS011;3106;42.670;23.318;2023-12-20T12:46:28;155.33;;;58.07;;
6149;SDS011;3106;42.670;23.318;2023-12-20T12:48:55;148.40;;;53.63;;
6149;SDS011;3106;42.670;23.318;2023-12-20T12:51:22;158.40;;;57.80;;
6149;SDS011;3106;42.670;23.318;2023-12-20T12:53:49;173.13;;;57.73;;
6149;SDS011;3106;42.670;23.318;2023-12-20T12:56:16;170.73;;;58.33;;
6149;SDS011;3106;42.670;23.318;2023-12-20T12:58:43;171.13;;;58.43;;
6149;SDS011;3106;42.670;23.318;2023-12-20T13:01:10;153.57;;;59.23;;
6149;SDS011;3106;42.670;23.318;2023-12-20T13:03:44;167.10;;;59.10;;
6149;SDS011;3106;42.670;23.318;2023-12-20T13:06:10;156.77;;;60.50;;
6149;SDS011;3106;42.670;23.318;2023-12-20T13:08:38;164.07;;;60.07;;
6149;SDS011;3106;42.670;23.318;2023-12-20T13:11:05;181.13;;;62.47;;
6149;SDS011;3106;42.670;23.318;2023-12-20T13:13:31;161.73;;;58.63;;
6149;SDS011;3106;42.670;23.318;2023-12-20T13:15:59;177.63;;;57.63;;
6149;SDS011;3106;42.670;23.318;2023-12-20T13:18:26;173.33;;;61.33;;
6149;SDS011;3106;42.670;23.318;2023-12-20T13:20:54;165.50;;;59.73;;
6149;SDS011;3106;42.670;23.318;2023-12-20T13:23:21;173.20;;;60.70;;
6149;SDS011;3106;42.670;23.318;2023-12-20T13:25:48;178.43;;;64.93;;
6149;SDS011;3106;42.670;23.318;2023-12-20T13:28:15;186.53;;;62.40;;
6149;SDS011;3106;42.670;23.318;2023-12-20T13:30:42;162.73;;;61.80;;
6149;SDS011;3106;42.670;23.318;2023-12-20T13:33:10;165.53;;;58.90;;
6149;SDS011;3106;42.670;23.318;2023-12-20T13:35:39;164.77;;;60.00;;
6149;SDS011;3106;42.670;23.318;2023-12-20T13:38:07;166.70;;;54.90;;
6149;SDS011;3106;42.670;23.318;2023-12-20T13:40:35;161.93;;;57.70;;
6149;SDS011;3106;42.670;23.318;2023-12-20T13:43:03;172.13;;;60.40;;
6149;SDS011;3106;42.670;23.318;2023-12-20T13:45:31;184.43;;;62.87;;
6149;SDS011;3106;42.670;23.318;2023-12-20T13:47:58;194.93;;;68.23;;
6149;SDS011;3106;42.670;23.318;2023-12-20T13:50:26;208.67;;;70.60;;
6149;SDS011;3106;42.670;23.318;2023-12-20T13:52:53;204.70;;;69.17;;
6149;SDS011;3106;42.670;23.318;2023-12-20T13:55:25;187.17;;;69.23;;
6149;SDS011;3106;42.670;23.318;2023-12-20T13:57:53;230.47;;;73.73;;
6149;SDS011;3106;42.670;23.318;2023-12-20T14:00:20;197.33;;;66.97;;
6149;SDS011;3106;42.670;23.318;2023-12-20T14:02:47;199.67;;;69.50;;
6149;SDS011;3106;42.670;23.318;2023-12-20T14:05:15;188.73;;;66.33;;
6149;SDS011;3106;42.670;23.318;2023-12-20T14:07:52;203.27;;;71.93;;
6149;SDS011;3106;42.670;23.318;2023-12-20T14:10:20;215.93;;;73.73;;
6149;SDS011;3106;42.670;23.318;2023-12-20T14:12:48;204.43;;;71.20;;
6149;SDS011;3106;42.670;23.318;2023-12-20T14:15:16;209.00;;;73.03;;
6149;SDS011;3106;42.670;23.318;2023-12-20T14:17:43;201.57;;;71.17;;
6149;SDS011;3106;42.670;23.318;2023-12-20T14:20:10;215.17;;;70.83;;
6149;SDS011;3106;42.670;23.318;2023-12-20T14:22:38;199.63;;;65.00;;
6149;SDS011;3106;42.670;23.318;2023-12-20T14:25:10;205.23;;;67.97;;
6149;SDS011;3106;42.670;23.318;2023-12-20T14:27:37;225.40;;;67.40;;
6149;SDS011;3106;42.670;23.318;2023-12-20T14:30:06;192.83;;;65.00;;
6149;SDS011;3106;42.670;23.318;2023-12-20T14:32:36;220.47;;;76.63;;
6149;SDS011;3106;42.670;23.318;2023-12-20T14:35:04;216.13;;;68.97;;